Time,TemperatureF,DewpointF,PressureIn,WindDirection,WindDirectionDegrees,WindSpeedMPH,WindSpeedGustMPH,Humidity,HourlyPrecipIn,Conditions,Clouds,dailyrainin,SoftwareType,DateUTC
2013-03-23 00:00:00,35.0,-99.9,-100.00,SSE,154,4.0,11.0,-999,-99.99,,,-99.99,,2013-03-23 06:00:00,
2013-03-23 00:52:00,35.0,-99.9,-100.00,SSE,154,4.0,11.0,-999,-99.99,,,-99.99,,2013-03-23 06:52:00,
2013-03-23 01:00:00,35.0,-99.9,-100.00,NNE,32,8.0,10.0,-999,-99.99,,,-99.99,,2013-03-23 07:00:00,
2013-03-23 01:52:00,35.0,-99.9,-100.00,NNE,32,8.0,10.0,-999,-99.99,,,-99.99,,2013-03-23 07:52:00,
2013-03-23 02:00:00,33.0,-99.9,-100.00,NNW,346,5.0,7.0,-999,-99.99,,,-99.99,,2013-03-23 08:00:00,
2013-03-23 02:53:00,33.0,-99.9,-100.00,NNW,346,5.0,7.0,-999,-99.99,,,-99.99,,2013-03-23 08:53:00,
2013-03-23 03:00:00,33.0,-99.9,-100.00,East,98,13.0,16.0,-999,-99.99,,,-99.99,,2013-03-23 09:00:00,
2013-03-23 03:53:00,33.0,-99.9,-100.00,East,98,13.0,16.0,-999,-99.99,,,-99.99,,2013-03-23 09:53:00,
2013-03-23 04:00:00,31.0,-99.9,-100.00,ENE,69,15.0,21.0,-999,-99.99,,,-99.99,,2013-03-23 10:00:00,
2013-03-23 04:53:00,31.0,-99.9,-100.00,ENE,69,15.0,21.0,-999,-99.99,,,-99.99,,2013-03-23 10:53:00,
2013-03-23 05:00:00,29.0,-99.9,-100.00,ENE,72,16.0,19.0,-999,-99.99,,,-99.99,,2013-03-23 11:00:00,
2013-03-23 05:52:00,29.0,-99.9,-100.00,ENE,72,16.0,19.0,-999,-99.99,,,-99.99,,2013-03-23 11:52:00,
2013-03-23 06:00:00,29.0,-99.9,-100.00,ENE,66,17.0,24.0,-999,-99.99,,,-99.99,,2013-03-23 12:00:00,
2013-03-23 06:53:00,29.0,-99.9,-100.00,ENE,66,17.0,24.0,-999,-99.99,,,-99.99,,2013-03-23 12:53:00,
2013-03-23 07:00:00,29.0,-99.9,-100.00,ENE,69,19.0,23.0,-999,-99.99,,,-99.99,,2013-03-23 13:00:00,
2013-03-23 07:53:00,29.0,-99.9,-100.00,ENE,69,19.0,23.0,-999,-99.99,,,-99.99,,2013-03-23 13:53:00,
2013-03-23 08:00:00,25.0,-99.9,-100.00,NE,35,26.0,29.0,-999,-99.99,,,-99.99,,2013-03-23 14:00:00,
2013-03-23 08:53:00,25.0,-99.9,-100.00,NE,35,26.0,29.0,-999,-99.99,,,-99.99,,2013-03-23 14:53:00,
2013-03-23 09:00:00,23.0,-99.9,-100.00,NE,40,29.0,34.0,-999,-99.99,,,-99.99,,2013-03-23 15:00:00,
2013-03-23 09:53:00,23.0,-99.9,-100.00,NE,40,29.0,34.0,-999,-99.99,,,-99.99,,2013-03-23 15:53:00,
2013-03-23 10:00:00,23.0,-99.9,-100.00,NE,40,32.0,35.0,-999,-99.99,,,-99.99,,2013-03-23 16:00:00,
2013-03-23 10:54:00,23.0,-99.9,-100.00,NE,40,32.0,35.0,-999,-99.99,,,-99.99,,2013-03-23 16:54:00,
2013-03-23 11:00:00,23.0,-99.9,-100.00,NE,34,25.0,31.0,-999,-99.99,,,-99.99,,2013-03-23 17:00:00,
2013-03-23 11:53:00,23.0,-99.9,-100.00,NE,34,25.0,31.0,-999,-99.99,,,-99.99,,2013-03-23 17:53:00,
2013-03-23 12:00:00,25.0,-99.9,-100.00,NE,39,20.0,29.0,-999,-99.99,,,-99.99,,2013-03-23 18:00:00,
2013-03-23 12:53:00,25.0,-99.9,-100.00,NE,39,20.0,29.0,-999,-99.99,,,-99.99,,2013-03-23 18:53:00,
2013-03-23 13:00:00,25.0,-99.9,-100.00,NNE,25,24.0,29.0,-999,-99.99,,,-99.99,,2013-03-23 19:00:00,
2013-03-23 13:53:00,25.0,-99.9,-100.00,NNE,25,24.0,29.0,-999,-99.99,,,-99.99,,2013-03-23 19:53:00,
2013-03-23 14:00:00,25.0,-99.9,-100.00,NNE,21,19.0,29.0,-999,-99.99,,,-99.99,,2013-03-23 20:00:00,
2013-03-23 14:53:00,25.0,-99.9,-100.00,NNE,21,19.0,29.0,-999,-99.99,,,-99.99,,2013-03-23 20:53:00,
2013-03-23 15:00:00,27.0,-99.9,-100.00,NNE,12,22.0,27.0,-999,-99.99,,,-99.99,,2013-03-23 21:00:00,
2013-03-23 15:54:00,27.0,-99.9,-100.00,NNE,12,22.0,27.0,-999,-99.99,,,-99.99,,2013-03-23 21:54:00,
2013-03-23 16:00:00,27.0,-99.9,-100.00,NNE,28,17.0,26.0,-999,-99.99,,,-99.99,,2013-03-23 22:00:00,
2013-03-23 16:54:00,27.0,-99.9,-100.00,NNE,28,17.0,26.0,-999,-99.99,,,-99.99,,2013-03-23 22:54:00,
2013-03-23 17:00:00,27.0,-99.9,-100.00,NE,36,21.0,27.0,-999,-99.99,,,-99.99,,2013-03-23 23:00:00,
2013-03-23 17:53:00,27.0,-99.9,-100.00,NE,36,21.0,27.0,-999,-99.99,,,-99.99,,2013-03-23 23:53:00,
2013-03-23 18:00:00,27.0,-99.9,-100.00,NNE,15,22.0,26.0,-999,-99.99,,,-99.99,,2013-03-24 00:00:00,
2013-03-23 18:53:00,27.0,-99.9,-100.00,NNE,15,22.0,26.0,-999,-99.99,,,-99.99,,2013-03-24 00:53:00,
2013-03-23 19:00:00,25.0,-99.9,-100.00,North,6,13.0,17.0,-999,-99.99,,,-99.99,,2013-03-24 01:00:00,
2013-03-23 19:53:00,25.0,-99.9,-100.00,North,6,13.0,17.0,-999,-99.99,,,-99.99,,2013-03-24 01:53:00,
2013-03-23 20:00:00,25.0,-99.9,-100.00,NNE,21,11.0,13.0,-999,-99.99,,,-99.99,,2013-03-24 02:00:00,
2013-03-23 20:52:00,25.0,-99.9,-100.00,NNE,21,11.0,13.0,-999,-99.99,,,-99.99,,2013-03-24 02:52:00,
2013-03-23 21:00:00,25.0,-99.9,-100.00,NE,34,17.0,21.0,-999,-99.99,,,-99.99,,2013-03-24 03:00:00,
2013-03-23 21:53:00,25.0,-99.9,-100.00,NE,34,17.0,21.0,-999,-99.99,,,-99.99,,2013-03-24 03:53:00,
2013-03-23 22:00:00,23.0,-99.9,-100.00,NE,34,15.0,23.0,-999,-99.99,,,-99.99,,2013-03-24 04:00:00,
2013-03-23 22:53:00,23.0,-99.9,-100.00,NE,34,15.0,23.0,-999,-99.99,,,-99.99,,2013-03-24 04:53:00,
2013-03-23 23:00:00,23.0,-99.9,-100.00,NNW,337,8.0,10.0,-999,-99.99,,,-99.99,,2013-03-24 05:00:00,
2013-03-23 23:52:00,23.0,-99.9,-100.00,NNW,337,8.0,10.0,-999,-99.99,,,-99.99,,2013-03-24 05:52:00,